Albany, New Hampshire
Current Conditions -  °F | °C
As of 12:54 PM on Wednesday 28 Jan 2015 (Local Time) from KIZG Reporting Station
Clear Clear  
Wind Chill: -11°   Ceiling: Unl
Heat Index: -6°   Visibility: 10mi
Dew Point: -14°   Wind: 8mph
Humidity: 53%   Direction: 50°NE
Pressure: 29.92"   Gusts: NA
Location:  43.9735°N, 71.2576°W
Report Text: KIZG 281754Z AUTO 05007KT 10SM CLR M06/M14 A2992 RMK AO2 SLP140 T10561139 11044 21100 50001
Loading
Personal Weather Stations






























Interactive Weather Map New forecast layout! Learn more

10-Day Weather Forecast

Advertisements
Track Severe Weather on mobile